createdAt,value
2023-03-27T00:04:09.362Z,101463.19
2023-03-27T00:09:11.718Z,101471.56
2023-03-27T00:14:14.006Z,101484.81
2023-03-27T00:19:16.014Z,101482.50
2023-03-27T00:24:17.770Z,101506.53
2023-03-27T00:29:19.364Z,101512.00
2023-03-27T00:34:21.150Z,101519.25
2023-03-27T00:39:23.771Z,101529.78
2023-03-27T00:44:31.162Z,101548.78
2023-03-27T00:49:37.061Z,101543.56
2023-03-27T00:54:40.051Z,101546.47
2023-03-27T00:59:43.744Z,101540.50
2023-03-27T01:04:46.574Z,101555.94
2023-03-27T01:09:49.741Z,101557.25
2023-03-27T01:15:26.463Z,101553.75
2023-03-27T01:20:57.396Z,101549.56
2023-03-27T01:26:35.653Z,101550.41
2023-03-27T01:32:07.333Z,101562.34
2023-03-27T01:37:22.317Z,101572.75
2023-03-27T01:42:36.668Z,101580.50
2023-03-27T01:47:51.645Z,101586.97
2023-03-27T01:53:31.177Z,101587.53
2023-03-27T01:58:40.850Z,101592.88
2023-03-27T02:03:46.924Z,101598.34
2023-03-27T02:09:04.055Z,101596.03
2023-03-27T02:14:16.903Z,101605.03
2023-03-27T02:19:25.985Z,101606.31
2023-03-27T02:24:27.973Z,101614.63
2023-03-27T02:29:35.264Z,101622.97
2023-03-27T02:34:57.153Z,101628.50
2023-03-27T02:40:24.125Z,101633.28
2023-03-27T02:45:38.018Z,101652.69
2023-03-27T02:51:03.756Z,101651.97
2023-03-27T02:56:08.465Z,101646.56
2023-03-27T03:01:13.756Z,101659.72
2023-03-27T03:06:34.634Z,101668.06
2023-03-27T03:11:44.727Z,101683.88
2023-03-27T03:16:46.683Z,101683.63
2023-03-27T03:21:49.492Z,101695.09
2023-03-27T03:26:51.247Z,101691.25
2023-03-27T03:31:54.006Z,101691.00
2023-03-27T03:36:56.321Z,101686.41
2023-03-27T03:42:04.275Z,101696.31
2023-03-27T03:47:06.254Z,101707.53
2023-03-27T03:52:08.413Z,101727.34
2023-03-27T03:57:10.448Z,101741.94
2023-03-27T04:02:12.526Z,101733.81
2023-03-27T04:07:14.395Z,101752.22
2023-03-27T04:12:20.436Z,101763.25
2023-03-27T04:17:30.213Z,101750.28
2023-03-27T04:22:37.943Z,101756.16
2023-03-27T04:27:43.416Z,101772.69
2023-03-27T04:32:53.163Z,101773.66
2023-03-27T04:38:28.200Z,101790.78
2023-03-27T04:43:40.159Z,101786.81
2023-03-27T04:48:42.722Z,101785.97
2023-03-27T04:54:05.058Z,101787.59
2023-03-27T04:59:07.239Z,101788.47
2023-03-27T05:04:09.026Z,101800.38
2023-03-27T05:09:23.712Z,101813.13
2023-03-27T05:14:25.422Z,101802.22
2023-03-27T05:19:28.645Z,101804.34
2023-03-27T05:24:33.945Z,101810.28
2023-03-27T05:29:46.928Z,101807.78
2023-03-27T05:34:51.341Z,101809.41
2023-03-27T05:39:54.305Z,101823.94
2023-03-27T05:44:56.189Z,101837.53
2023-03-27T05:49:58.281Z,101844.78
2023-03-27T05:55:00.116Z,101840.34
2023-03-27T06:00:02.055Z,101837.75
2023-03-27T06:05:10.675Z,101835.16
2023-03-27T06:10:17.866Z,101840.34
2023-03-27T06:15:40.927Z,101856.00
2023-03-27T06:20:54.178Z,101858.44
2023-03-27T06:25:56.160Z,101864.31
2023-03-27T06:30:59.852Z,101872.69
2023-03-27T06:36:14.786Z,101883.81
2023-03-27T06:41:17.877Z,101890.88
2023-03-27T06:46:45.955Z,101886.94
2023-03-27T06:51:52.369Z,101888.84
2023-03-27T06:56:55.930Z,101905.47
2023-03-27T07:01:58.201Z,101928.31
2023-03-27T07:06:59.914Z,101926.41
2023-03-27T07:12:06.704Z,101938.69
2023-03-27T07:17:09.845Z,101940.75
2023-03-27T07:22:30.049Z,101948.63
2023-03-27T07:27:37.921Z,101962.00
2023-03-27T07:32:43.003Z,101973.56
2023-03-27T07:37:45.677Z,101978.97
2023-03-27T07:43:09.115Z,101988.78
2023-03-27T07:48:16.251Z,101992.00
2023-03-27T07:53:32.988Z,101995.84
2023-03-27T07:58:44.722Z,101996.47
2023-03-27T08:03:53.028Z,102006.16
2023-03-27T08:08:57.105Z,102009.72
2023-03-27T08:14:02.198Z,102019.44
2023-03-27T08:19:04.704Z,102009.38
2023-03-27T08:24:10.070Z,102002.72
2023-03-27T08:29:43.381Z,102008.63
2023-03-27T08:34:45.752Z,102035.34
2023-03-27T08:39:58.792Z,102049.03
2023-03-27T08:45:09.561Z,102051.06
2023-03-27T08:50:41.239Z,102053.41
2023-03-27T08:55:52.520Z,102073.91
2023-03-27T09:01:45.179Z,102067.69
2023-03-27T09:07:23.043Z,102076.25
2023-03-27T09:12:46.710Z,102077.22
2023-03-27T09:17:57.674Z,102093.63
2023-03-27T09:23:05.518Z,102099.09
2023-03-27T09:28:36.071Z,102092.19
2023-03-27T09:33:42.269Z,102096.78
2023-03-27T09:38:50.771Z,102099.91
2023-03-27T09:44:09.935Z,102103.25
2023-03-27T09:49:17.900Z,102101.25
2023-03-27T09:54:25.626Z,102111.56
2023-03-27T09:59:30.670Z,102110.19
2023-03-27T10:04:40.250Z,102120.81
2023-03-27T10:09:42.023Z,102125.59
2023-03-27T10:14:51.787Z,102140.13
2023-03-27T10:20:17.652Z,102132.44
2023-03-27T10:25:38.850Z,102145.59
2023-03-27T10:31:01.356Z,102142.41
2023-03-27T10:36:26.613Z,102142.72
2023-03-27T10:41:29.438Z,102139.56
2023-03-27T10:46:39.686Z,102158.59
2023-03-27T10:52:13.122Z,102174.31
2023-03-27T10:57:35.657Z,102159.91
2023-03-27T11:02:57.367Z,102158.34
2023-03-27T11:08:08.558Z,102180.34
2023-03-27T11:13:11.447Z,102182.44
2023-03-27T11:18:20.156Z,102188.56
2023-03-27T11:23:42.401Z,102172.44
2023-03-27T11:28:58.391Z,102193.66
2023-03-27T11:34:15.439Z,102210.81
2023-03-27T11:39:39.521Z,102214.31
2023-03-27T11:44:41.983Z,102215.03
2023-03-27T11:50:01.364Z,102213.88
2023-03-27T11:55:31.260Z,102227.59
2023-03-27T12:00:45.113Z,102224.78
2023-03-27T12:06:14.744Z,102220.56
2023-03-27T12:11:21.902Z,102238.94
2023-03-27T12:16:48.598Z,102252.88
2023-03-27T12:22:32.617Z,102246.16
2023-03-27T12:28:23.028Z,102293.28
2023-03-27T12:33:44.687Z,102262.53
2023-03-27T12:38:47.062Z,102266.16
2023-03-27T12:43:57.683Z,102261.56
2023-03-27T12:49:13.762Z,102249.38
2023-03-27T12:54:35.517Z,102252.44
2023-03-27T12:59:59.807Z,102246.78
2023-03-27T13:05:26.779Z,102256.22
2023-03-27T13:10:49.446Z,102248.19
2023-03-27T13:16:23.551Z,102249.41
2023-03-27T13:22:05.082Z,102268.34
2023-03-27T13:27:35.406Z,102259.84
2023-03-27T13:32:39.959Z,102260.78
2023-03-27T13:37:50.962Z,102264.25
2023-03-27T13:43:23.170Z,102268.84
2023-03-27T13:48:56.350Z,102271.59
2023-03-27T13:54:20.784Z,102275.88
2023-03-27T13:59:46.148Z,102276.00
2023-03-27T14:05:09.091Z,102280.59
2023-03-27T14:10:42.635Z,102280.69
2023-03-27T14:16:13.388Z,102288.03
2023-03-27T14:21:35.652Z,102285.75
2023-03-27T14:26:45.441Z,102294.31
2023-03-27T14:31:50.942Z,102293.06
2023-03-27T14:37:39.552Z,102309.09
2023-03-27T14:43:12.211Z,102305.34
2023-03-27T14:48:19.669Z,102302.91
2023-03-27T14:53:29.276Z,102321.47
2023-03-27T14:59:03.725Z,102310.78
2023-03-27T15:04:35.021Z,102320.47
2023-03-27T15:09:42.866Z,102322.91
2023-03-27T15:15:17.123Z,102323.00
2023-03-27T15:20:21.814Z,102335.31
2023-03-27T15:25:36.145Z,102334.72
2023-03-27T15:30:45.156Z,102341.81
2023-03-27T15:35:51.820Z,102344.88
2023-03-27T15:41:01.703Z,102355.31
2023-03-27T15:46:26.719Z,102361.25
2023-03-27T15:51:31.007Z,102359.47
2023-03-27T15:56:40.338Z,102367.25
2023-03-27T16:01:52.182Z,102372.72
2023-03-27T16:07:17.953Z,102376.28
2023-03-27T16:12:32.219Z,102375.31
2023-03-27T16:17:40.443Z,102380.75
2023-03-27T16:22:42.246Z,102386.38
2023-03-27T16:27:51.299Z,102385.69
2023-03-27T16:32:53.738Z,102394.47
2023-03-27T16:37:56.539Z,102392.13
2023-03-27T16:42:58.176Z,102395.31
2023-03-27T16:47:59.866Z,102398.31
2023-03-27T16:53:01.654Z,102404.25
2023-03-27T16:58:03.865Z,102395.41
2023-03-27T17:03:05.660Z,102404.47
2023-03-27T17:08:08.783Z,102417.81
2023-03-27T17:13:10.950Z,102419.44
2023-03-27T17:18:12.790Z,102419.38
2023-03-27T17:23:15.176Z,102424.88
2023-03-27T17:28:17.341Z,102422.84
2023-03-27T17:33:19.011Z,102424.41
2023-03-27T17:38:22.925Z,102429.22
2023-03-27T17:43:24.720Z,102440.00
2023-03-27T17:48:26.358Z,102428.75
2023-03-27T17:53:29.192Z,102440.84
2023-03-27T17:58:31.357Z,102442.84
2023-03-27T18:03:33.246Z,102437.91
2023-03-27T18:08:35.416Z,102449.19
2023-03-27T18:13:37.905Z,102458.88
2023-03-27T18:18:40.251Z,102457.56
2023-03-27T18:23:46.525Z,102474.03
2023-03-27T18:28:48.633Z,102481.50
2023-03-27T18:33:50.328Z,102469.63
2023-03-27T18:38:52.156Z,102470.03
2023-03-27T18:43:53.991Z,102475.00
2023-03-27T18:48:55.903Z,102481.75
2023-03-27T18:53:58.154Z,102487.00
2023-03-27T18:58:59.876Z,102485.06
2023-03-27T19:04:03.876Z,102492.94
2023-03-27T19:09:05.755Z,102497.47
2023-03-27T19:14:08.101Z,102491.25
2023-03-27T19:19:18.926Z,102490.50
2023-03-27T19:24:26.427Z,102493.56
2023-03-27T19:29:29.237Z,102494.69
2023-03-27T19:34:42.116Z,102493.44
2023-03-27T19:39:44.657Z,102494.06
2023-03-27T19:44:46.433Z,102486.44
2023-03-27T19:49:49.215Z,102487.41
2023-03-27T19:54:50.937Z,102480.44
2023-03-27T19:59:53.676Z,102481.66
2023-03-27T20:04:55.688Z,102476.44
2023-03-27T20:09:57.329Z,102486.88
2023-03-27T20:15:10.602Z,102490.84
2023-03-27T20:20:17.681Z,102482.88
2023-03-27T20:25:19.343Z,102484.13
2023-03-27T20:30:21.223Z,102485.63
2023-03-27T20:35:25.118Z,102490.84
2023-03-27T20:40:27.176Z,102485.00
2023-03-27T20:45:30.903Z,102500.66
2023-03-27T20:50:35.388Z,102507.38
2023-03-27T21:00:43.670Z,102495.44
2023-03-27T21:05:45.533Z,102494.22
2023-03-27T21:10:53.993Z,102491.91
2023-03-27T21:15:56.062Z,102496.53
2023-03-27T21:20:57.925Z,102490.31
2023-03-27T21:26:00.029Z,102497.66
2023-03-27T21:31:07.022Z,102498.03
2023-03-27T21:36:10.007Z,102506.22
2023-03-27T21:41:17.182Z,102509.94
2023-03-27T21:46:19.011Z,102507.69
2023-03-27T21:51:21.147Z,102515.91
2023-03-27T21:56:23.045Z,102507.78
2023-03-27T22:01:26.033Z,102506.72
2023-03-27T22:06:31.650Z,102511.75
2023-03-27T22:11:33.350Z,102518.81
2023-03-27T22:16:35.174Z,102526.28
2023-03-27T22:21:36.968Z,102523.81
2023-03-27T22:26:40.281Z,102520.34
2023-03-27T22:31:42.016Z,102529.53
2023-03-27T22:36:44.237Z,102533.91
2023-03-27T22:41:46.123Z,102527.78
2023-03-27T22:46:47.844Z,102528.00
2023-03-27T22:51:49.551Z,102528.66
2023-03-27T22:56:51.413Z,102535.91
2023-03-27T23:01:53.322Z,102538.34
2023-03-27T23:06:55.449Z,102541.28
2023-03-27T23:11:57.121Z,102541.47
2023-03-27T23:16:58.969Z,102542.97
2023-03-27T23:22:00.905Z,102535.72
2023-03-27T23:27:04.986Z,102526.75
2023-03-27T23:32:06.920Z,102535.16
2023-03-27T23:37:08.709Z,102533.06
2023-03-27T23:42:10.689Z,102538.59
2023-03-27T23:47:13.055Z,102536.94
2023-03-27T23:52:14.991Z,102535.22
2023-03-27T23:57:16.709Z,102535.56
